This is the latest recevied weather packets stored in our database for station/object W5TUX. If no packets are shown the sender has not sent any weather packets the latest 1 day(s).
| Time | Temp. | Humidity | Pressure | Rain* | Wind** | Luminosity | Snow |
|---|---|---|---|---|---|---|---|
| 1777984422 | 22.78° C | 81% | 1009.4 hPa | 0 mm | 0.89 m/s, 154° | 20 W/m² | - |
| 1777984117 | 22.78° C | 81% | 1009.4 hPa | 0 mm | 0.89 m/s, 216° | 25 W/m² | - |
| 1777983815 | 22.78° C | 82% | 1009.4 hPa | 0 mm | 1.79 m/s, 210° | 24 W/m² | - |
| 1777983512 | 22.78° C | 81% | 1009.3 hPa | 0 mm | 2.24 m/s, 205° | 20 W/m² | - |
| 1777983209 | 22.22° C | 82% | 1009.3 hPa | 0 mm | 2.68 m/s, 191° | 13 W/m² | - |
| 1777982905 | 22.22° C | 82% | 1009 hPa | 0 mm | 0.89 m/s, 273° | 15 W/m² | - |
| 1777982601 | 22.22° C | 82% | 1009.1 hPa | 0 mm | 0.89 m/s, 192° | 10 W/m² | - |
| 1777982299 | 22.22° C | 81% | 1008.9 hPa | 0 mm | 1.79 m/s, 171° | 9 W/m² | - |
| 1777981997 | 22.22° C | 82% | 1009.2 hPa | 0 mm | 3.13 m/s, 222° | 5 W/m² | - |
| 1777981695 | 22.22° C | 82% | 1009.1 hPa | 0 mm | 1.34 m/s, 224° | 4 W/m² | - |
| 1777981391 | 22.22° C | 82% | 1009 hPa | 0 mm | 1.79 m/s, 213° | 2 W/m² | - |
| 1777981088 | 22.22° C | 83% | 1009.2 hPa | 0 mm | 2.24 m/s, 207° | 1 W/m² | - |
| 1777980784 | 22.22° C | 82% | 1009.3 hPa | 0 mm | 2.24 m/s, 232° | 1 W/m² | - |
| 1777980480 | 21.67° C | 84% | 1009 hPa | 0 mm | 2.24 m/s, 207° | 0 W/m² | - |
| 1777980178 | 21.67° C | 84% | 1009 hPa | 0 mm | 0.89 m/s, 207° | 0 W/m² | - |
| 1777979878 | 21.67° C | 84% | 1008.9 hPa | 0 mm | 1.34 m/s, 233° | 0 W/m² | - |
| 1777979574 | 21.67° C | 84% | 1008.8 hPa | 0 mm | 1.79 m/s, 225° | 0 W/m² | - |
| 1777979270 | 21.67° C | 84% | 1009 hPa | 0 mm | 1.34 m/s, 198° | 0 W/m² | - |
| 1777978968 | 21.67° C | 84% | 1008.8 hPa | 0 mm | 1.34 m/s, 208° | 0 W/m² | - |
| 1777978664 | 21.67° C | 83% | 1008.9 hPa | 0 mm | 0 m/s | 0 W/m² | - |
| 1777978360 | 21.67° C | 83% | 1008.9 hPa | 0 mm | 2.24 m/s, 196° | 0 W/m² | - |
| 1777978057 | 22.22° C | 83% | 1008.8 hPa | 0 mm | 1.34 m/s, 189° | 0 W/m² | - |
| 1777977754 | 22.22° C | 83% | 1009 hPa | 0 mm | 1.79 m/s, 206° | 0 W/m² | - |
| 1777977450 | 22.22° C | 83% | 1008.8 hPa | 0 mm | 2.68 m/s, 225° | 0 W/m² | - |
| 1777977148 | 22.22° C | 83% | 1008.7 hPa | 0 mm | 3.13 m/s, 212° | 0 W/m² | - |
* Rain latest hour (hover to see other rain measurements)
** Current wind speed in m/s (hover to see current wind gust speed)